Lawson, Missouri
Current Conditions -  °F | °C
As of 12:35 AM on Thursday 29 Jan 2015 (Local Time) from KGPH Reporting Station
Clear Clear  
Wind Chill: 52°   Ceiling: Unl
Heat Index: 52°   Visibility: 10mi
Dew Point: 37°   Wind: 20mph
Humidity: 58%   Direction: 310°NW
Pressure: 29.86"   Gusts: 31mph
Location:  39.44°N, 94.2°W
Report Text: KGPH 290635Z AUTO 31017G27KT 10SM CLR 11/03 A2986 RMK AO2
Loading
Personal Weather Stations






























Interactive Weather Map New forecast layout! Learn more

10-Day Weather Forecast

Advertisements
Track Severe Weather on mobile